Time;durP1;ratioP1;P1;durP2;ratioP2;P2;SDS_P1;SDS_P2;PMS_P1;PMS_P2;Temp;Humidity;BMP_temperature;BMP_pressure;BME280_temperature;BME280_humidity;BME280_pressure;Samples;Min_cycle;Max_cycle;Signal;HPM_P1;HPM_P2
2022/09/11 00:02:08;;;;;;;13.68;11.95;;;;;;;16.87;82.99;101498.38;6338249;27;20630;-76
2022/09/11 00:05:30;;;;;;;16.83;10.27;;;;;;;16.78;83.59;101498.31;6337076;27;20602;-78
2022/09/11 00:08:53;;;;;;;12.05;8.88;;;;;;;16.75;83.50;101504.06;6340515;27;20229;-78
2022/09/11 00:12:14;;;;;;;20.17;11.02;;;;;;;16.75;83.65;101503.25;6324839;28;20233;-77
2022/09/11 00:15:40;;;;;;;20.52;10.93;;;;;;;16.80;83.68;101506.31;6341774;28;20321;-77
2022/09/11 00:19:04;;;;;;;17.95;12.73;;;;;;;16.79;83.64;101510.06;6341949;28;20229;-77
2022/09/11 00:22:26;;;;;;;14.85;10.43;;;;;;;16.66;84.31;101502.34;6323836;27;20229;-76
2022/09/11 00:25:47;;;;;;;18.77;10.85;;;;;;;16.82;83.77;101508.88;6325334;27;20209;-77
2022/09/11 00:29:08;;;;;;;15.07;10.35;;;;;;;16.82;83.97;101507.00;6353984;27;20229;-76
2022/09/11 00:32:32;;;;;;;16.75;11.00;;;;;;;16.77;84.31;101503.94;6327078;27;20316;-77
2022/09/11 00:35:58;;;;;;;15.38;9.52;;;;;;;16.74;84.37;101509.69;6329694;27;20717;-77
2022/09/11 00:39:20;;;;;;;17.35;10.65;;;;;;;16.65;84.67;101497.03;6333798;27;20600;-77
2022/09/11 00:42:41;;;;;;;15.80;11.48;;;;;;;16.67;84.48;101498.56;6356630;27;20232;-76
2022/09/11 00:46:05;;;;;;;10.82;9.13;;;;;;;16.55;85.19;101502.59;6355908;27;20240;-76
2022/09/11 00:49:31;;;;;;;17.98;12.15;;;;;;;16.60;85.00;101507.56;6346411;27;20222;-76
2022/09/11 00:52:56;;;;;;;17.10;9.82;;;;;;;16.65;84.72;101505.19;6354711;27;20248;-76
2022/09/11 00:56:17;;;;;;;14.57;8.52;;;;;;;16.71;84.51;101513.56;6338719;27;20237;-77
2022/09/11 00:59:42;;;;;;;17.75;10.73;;;;;;;16.69;84.30;101506.56;6344264;27;20523;-77
2022/09/11 01:03:04;;;;;;;13.55;9.15;;;;;;;16.70;84.45;101513.75;6344818;27;20508;-77
2022/09/11 01:06:26;;;;;;;13.88;11.77;;;;;;;16.68;84.40;101505.75;6323532;27;20233;-77
2022/09/11 01:09:48;;;;;;;16.05;10.60;;;;;;;16.60;85.17;101508.41;6349051;27;20226;-77
2022/09/11 01:13:16;;;;;;;15.20;10.50;;;;;;;16.71;84.71;101505.41;6346944;27;20250;-76
2022/09/11 01:16:42;;;;;;;13.05;10.25;;;;;;;16.72;84.32;101515.31;6320202;27;20645;-76
2022/09/11 01:20:29;;;;;;;14.65;10.30;;;;;;;16.70;84.89;101514.59;6311989;27;21086;-76
2022/09/11 01:24:15;;;;;;;12.25;10.48;;;;;;;16.69;84.83;101512.03;6343534;27;20218;-77
2022/09/11 01:27:42;;;;;;;15.43;9.90;;;;;;;16.76;84.82;101515.81;6334784;27;20255;-76
2022/09/11 01:31:10;;;;;;;16.52;11.52;;;;;;;16.77;84.66;101520.28;6317297;27;20245;-76
2022/09/11 01:34:37;;;;;;;15.07;12.07;;;;;;;16.80;84.58;101525.38;6328248;27;20233;-77
2022/09/11 01:38:04;;;;;;;13.93;10.40;;;;;;;16.67;85.05;101531.25;6339289;27;20235;-76
2022/09/11 01:41:30;;;;;;;13.48;10.18;;;;;;;16.67;85.39;101538.56;6335638;27;20233;-77
2022/09/11 01:44:56;;;;;;;14.77;11.50;;;;;;;16.58;85.70;101543.09;6328883;27;20312;-76
2022/09/11 01:48:22;;;;;;;15.05;10.25;;;;;;;16.68;85.39;101538.41;6324229;27;20332;-76
2022/09/11 01:51:46;;;;;;;11.88;9.38;;;;;;;16.77;85.33;101532.00;6329182;27;20234;-76
2022/09/11 01:55:13;;;;;;;14.27;9.60;;;;;;;16.74;85.05;101536.91;6313094;27;20256;-77
2022/09/11 01:58:36;;;;;;;14.32;10.65;;;;;;;16.72;85.06;101541.66;6317450;27;20324;-76
2022/09/11 02:02:04;;;;;;;16.40;12.50;;;;;;;16.64;85.35;101541.63;6343826;27;20253;-76
2022/09/11 02:05:29;;;;;;;11.18;7.63;;;;;;;16.60;85.25;101535.66;6342685;27;20589;-76
2022/09/11 02:08:54;;;;;;;14.60;11.13;;;;;;;16.66;85.51;101536.88;6328810;27;20217;-77
2022/09/11 02:12:20;;;;;;;14.45;8.32;;;;;;;16.73;85.29;101543.34;6337223;27;20229;-77
2022/09/11 02:15:44;;;;;;;15.52;10.20;;;;;;;16.70;85.01;101544.56;6315294;27;20236;-76
2022/09/11 02:19:11;;;;;;;13.40;10.50;;;;;;;16.70;84.62;101544.56;6334266;27;20786;-76
2022/09/11 02:22:32;;;;;;;13.70;9.35;;;;;;;16.71;84.85;101546.25;6327304;27;20242;-76
2022/09/11 02:25:54;;;;;;;15.13;10.30;;;;;;;16.70;85.02;101551.88;6321587;27;20397;-76
2022/09/11 02:29:15;;;;;;;14.77;10.45;;;;;;;16.63;85.17;101556.22;6338648;27;20321;-76
2022/09/11 02:32:39;;;;;;;15.48;10.70;;;;;;;16.58;85.50;101558.59;6321244;27;20218;-76
2022/09/11 02:36:28;;;;;;;16.38;9.65;;;;;;;16.71;85.24;101561.72;6338207;27;20312;-76
2022/09/11 02:40:19;;;;;;;15.13;10.65;;;;;;;16.65;84.93;101565.94;6334179;27;20229;-76
2022/09/11 02:43:56;;;;;;;13.00;7.70;;;;;;;16.65;84.99;101565.94;6327218;27;20231;-75
2022/09/11 02:47:31;;;;;;;12.98;9.43;;;;;;;16.61;85.44;101571.88;6323500;27;20934;-76
2022/09/11 02:51:01;;;;;;;13.13;9.20;;;;;;;16.56;85.85;101579.66;6323082;27;20237;-76
2022/09/11 02:54:30;;;;;;;12.52;9.52;;;;;;;16.55;85.50;101578.81;6317888;27;21367;-76
2022/09/11 02:57:59;;;;;;;14.02;8.63;;;;;;;16.54;85.62;101579.81;6326422;27;20225;-76
2022/09/11 03:01:21;;;;;;;17.23;9.02;;;;;;;16.59;85.33;101587.50;6329135;27;20224;-76
2022/09/11 03:04:42;;;;;;;16.92;9.15;;;;;;;16.52;85.49;101586.44;6331841;27;20221;-76
2022/09/11 03:08:03;;;;;;;14.10;8.48;;;;;;;16.49;85.26;101584.88;6331263;27;20220;-77
2022/09/11 03:11:26;;;;;;;11.75;7.38;;;;;;;16.51;85.19;101592.88;6342019;27;23394;-75
2022/09/11 03:14:47;;;;;;;14.15;9.02;;;;;;;16.50;85.02;101583.84;6322471;27;20713;-76
2022/09/11 03:18:09;;;;;;;12.20;7.88;;;;;;;16.51;85.42;101596.47;6331963;27;20618;-76
2022/09/11 03:21:30;;;;;;;11.57;8.48;;;;;;;16.44;85.65;101595.34;6333123;27;20209;-76
2022/09/11 03:24:53;;;;;;;13.85;8.57;;;;;;;16.45;85.58;101593.47;6341876;27;20242;-76
2022/09/11 03:28:16;;;;;;;11.38;7.70;;;;;;;16.46;85.47;101579.72;6324748;27;20627;-76
2022/09/11 03:31:37;;;;;;;9.65;6.18;;;;;;;16.43;85.35;101588.19;6330026;27;20602;-75
2022/09/11 03:35:00;;;;;;;16.50;9.05;;;;;;;16.46;85.12;101595.19;6349407;27;20536;-76
2022/09/11 03:38:21;;;;;;;13.82;7.80;;;;;;;16.46;85.46;101598.75;6339409;27;20222;-76
2022/09/11 03:41:42;;;;;;;11.07;7.35;;;;;;;16.51;85.63;101596.47;6337329;27;20221;-76
2022/09/11 03:45:06;;;;;;;15.27;7.30;;;;;;;16.50;84.95;101602.91;6341052;27;20244;-77
2022/09/11 03:48:28;;;;;;;7.88;5.60;;;;;;;16.49;85.27;101601.22;6327873;27;20225;-76
2022/09/11 03:51:49;;;;;;;12.98;6.63;;;;;;;16.44;85.22;101598.06;6332777;27;20709;-76
2022/09/11 03:55:11;;;;;;;10.95;7.05;;;;;;;16.48;85.22;101598.63;6324840;27;20554;-75
2022/09/11 03:58:32;;;;;;;11.15;7.30;;;;;;;16.44;84.99;101591.75;6329830;27;20324;-76
2022/09/11 04:01:55;;;;;;;10.75;6.40;;;;;;;16.48;85.08;101594.00;6306540;27;20229;-76
2022/09/11 04:05:17;;;;;;;7.93;5.88;;;;;;;16.31;85.54;101594.03;6324980;27;20232;-76
2022/09/11 04:08:40;;;;;;;10.73;7.40;;;;;;;16.36;85.57;101600.72;6317199;27;20233;-76
2022/09/11 04:12:03;;;;;;;10.25;6.90;;;;;;;16.36;85.22;101598.00;6326692;27;20229;-77
2022/09/11 04:15:24;;;;;;;9.85;5.10;;;;;;;16.43;85.07;101598.22;6322482;27;20238;-77
2022/09/11 04:18:48;;;;;;;12.68;7.63;;;;;;;16.39;85.58;101602.28;6324176;28;20225;-76
2022/09/11 04:22:09;;;;;;;8.98;5.63;;;;;;;16.35;86.03;101617.22;6319742;27;20225;-76
2022/09/11 04:25:33;;;;;;;8.70;5.15;;;;;;;16.34;85.32;101615.47;6327473;28;20229;-76
2022/09/11 04:28:58;;;;;;;8.55;5.68;;;;;;;16.47;85.04;101613.22;6328755;27;20226;-76
2022/09/11 04:32:19;;;;;;;7.65;5.22;;;;;;;16.44;84.87;101624.41;6317121;27;20899;-76
2022/09/11 04:35:41;;;;;;;9.45;6.30;;;;;;;16.40;84.96;101615.72;6321958;27;20552;-77
2022/09/11 04:39:02;;;;;;;9.93;5.78;;;;;;;16.30;85.09;101614.94;6344676;27;20221;-76
2022/09/11 04:42:25;;;;;;;7.38;5.43;;;;;;;16.47;84.61;101610.50;6316104;28;20775;-76
2022/09/11 04:45:47;;;;;;;7.07;4.90;;;;;;;16.40;84.76;101614.84;6319744;27;20260;-76
2022/09/11 04:49:09;;;;;;;9.02;7.13;;;;;;;16.45;84.29;101626.16;6329866;27;20385;-76
2022/09/11 04:52:33;;;;;;;8.07;5.43;;;;;;;16.48;84.19;101629.41;6311237;28;21472;-76
2022/09/11 04:56:01;;;;;;;6.00;3.83;;;;;;;16.47;83.78;101626.84;6329149;27;20313;-75
2022/09/11 04:59:24;;;;;;;7.15;4.75;;;;;;;16.46;83.94;101630.56;6311434;27;21184;-76
2022/09/11 05:02:55;;;;;;;7.00;5.43;;;;;;;16.42;84.08;101642.78;6316547;27;20237;-77
2022/09/11 05:06:16;;;;;;;9.43;5.45;;;;;;;16.25;84.00;101639.03;6338308;27;20248;-76
2022/09/11 05:09:40;;;;;;;6.22;5.07;;;;;;;16.24;84.69;101637.34;6337407;27;20293;-76
2022/09/11 05:13:01;;;;;;;5.93;4.03;;;;;;;16.22;84.29;101650.25;6348448;27;20228;-76
2022/09/11 05:16:22;;;;;;;8.18;4.72;;;;;;;15.99;85.39;101660.69;6330991;27;20221;-76
2022/09/11 05:19:43;;;;;;;7.40;4.72;;;;;;;16.09;85.32;101663.34;6338418;27;20445;-78
2022/09/11 05:23:04;;;;;;;4.13;3.53;;;;;;;16.15;84.98;101664.59;6324504;27;20233;-78
2022/09/11 05:26:28;;;;;;;6.07;3.97;;;;;;;16.22;84.89;101666.56;6333072;27;20504;-76
2022/09/11 05:29:49;;;;;;;5.28;3.80;;;;;;;16.32;84.22;101663.75;6334394;27;20519;-76
2022/09/11 05:33:13;;;;;;;8.27;5.53;;;;;;;16.25;84.40;101670.84;6351096;27;20328;-77
2022/09/11 05:36:34;;;;;;;7.63;5.13;;;;;;;16.13;85.35;101678.34;6333366;27;20224;-79
2022/09/11 05:39:57;;;;;;;4.30;3.90;;;;;;;16.18;85.34;101692.38;6323421;27;20248;-76
2022/09/11 05:43:20;;;;;;;7.13;4.73;;;;;;;16.11;85.48;101685.81;6344194;27;20229;-76
2022/09/11 05:46:42;;;;;;;6.17;4.87;;;;;;;16.15;85.59;101681.78;6325829;27;20237;-75
2022/09/11 05:50:06;;;;;;;7.57;4.70;;;;;;;15.99;85.75;101687.91;6296327;27;20245;-76
2022/09/11 05:53:29;;;;;;;4.77;3.40;;;;;;;16.37;84.69;101686.81;6328440;27;20705;-76
2022/09/11 05:56:50;;;;;;;8.57;5.55;;;;;;;16.57;83.75;101690.25;6331251;27;20555;-76
2022/09/11 06:00:19;;;;;;;4.78;3.75;;;;;;;16.62;83.50;101701.56;6317065;27;20290;-76
2022/09/11 06:03:48;;;;;;;5.70;3.63;;;;;;;16.61;83.36;101699.81;6336356;27;20377;-76
2022/09/11 06:07:10;;;;;;;5.70;4.22;;;;;;;16.64;83.37;101704.97;6322365;27;20229;-76
2022/09/11 06:10:34;;;;;;;6.47;3.58;;;;;;;16.68;83.71;101709.09;6341972;27;20681;-75
2022/09/11 06:13:55;;;;;;;5.00;4.22;;;;;;;16.77;83.30;101706.28;6325644;27;20232;-76
2022/09/11 06:17:18;;;;;;;3.85;3.10;;;;;;;16.88;82.47;101698.88;6335575;27;20595;-76
2022/09/11 06:20:40;;;;;;;4.32;3.13;;;;;;;17.01;81.87;101696.63;6315765;27;20577;-76
2022/09/11 06:24:05;;;;;;;4.03;3.17;;;;;;;17.08;81.79;101703.16;6329294;27;20229;-76
2022/09/11 06:27:27;;;;;;;4.95;4.32;;;;;;;17.15;81.70;101702.38;6319382;27;20225;-77
2022/09/11 06:30:50;;;;;;;5.55;3.90;;;;;;;17.15;81.19;101704.22;6325472;27;20229;-76
2022/09/11 06:34:13;;;;;;;3.22;2.70;;;;;;;17.29;80.49;101709.13;6323962;27;20511;-77
2022/09/11 06:37:34;;;;;;;4.38;2.45;;;;;;;17.48;80.03;101706.19;6344532;27;21083;-77
2022/09/11 06:40:55;;;;;;;2.63;2.42;;;;;;;17.78;78.35;101710.31;6337652;27;20230;-76
2022/09/11 06:44:17;;;;;;;2.42;2.17;;;;;;;17.62;78.33;101710.22;6340920;27;20443;-77
2022/09/11 06:47:38;;;;;;;3.50;2.33;;;;;;;17.63;78.57;101717.41;6326715;27;20587;-75
2022/09/11 06:51:03;;;;;;;3.40;2.75;;;;;;;17.62;78.26;101719.28;6326309;27;20564;-76
2022/09/11 06:54:25;;;;;;;3.88;2.83;;;;;;;17.85;77.56;101720.44;6314914;27;20320;-77
2022/09/11 06:57:47;;;;;;;3.33;3.13;;;;;;;17.75;77.63;101727.00;6327832;27;20226;-76
2022/09/11 07:01:14;;;;;;;2.97;2.67;;;;;;;17.60;78.19;101725.91;6328123;27;20264;-75
2022/09/11 07:04:36;;;;;;;4.32;3.05;;;;;;;17.50;78.68;101728.75;6345497;27;20315;-76
2022/09/11 07:08:00;;;;;;;3.67;3.17;;;;;;;17.44;78.93;101724.72;6322474;27;20307;-77
2022/09/11 07:11:25;;;;;;;4.75;3.15;;;;;;;17.49;79.01;101730.59;6320556;27;20225;-77
2022/09/11 07:14:47;;;;;;;4.68;3.25;;;;;;;17.61;78.25;101733.06;6337557;27;20712;-76
2022/09/11 07:18:11;;;;;;;3.70;2.78;;;;;;;17.51;78.69;101727.72;6320191;27;20323;-77
2022/09/11 07:21:33;;;;;;;5.70;2.85;;;;;;;17.52;78.58;101733.00;6309931;27;20702;-77
2022/09/11 07:24:59;;;;;;;2.97;2.58;;;;;;;17.46;78.36;101732.75;6313267;27;20225;-77
2022/09/11 07:28:20;;;;;;;3.15;2.58;;;;;;;17.58;78.18;101735.06;6317779;27;20532;-76
2022/09/11 07:31:43;;;;;;;3.35;2.83;;;;;;;17.57;78.35;101727.06;6310929;27;20235;-74
2022/09/11 07:35:06;;;;;;;2.50;2.30;;;;;;;17.72;77.99;101735.50;6327474;27;20233;-72
2022/09/11 07:38:30;;;;;;;1.98;1.65;;;;;;;17.89;76.62;101740.03;6343883;27;20225;-74
2022/09/11 07:41:52;;;;;;;2.10;1.95;;;;;;;17.97;76.04;101731.91;6319125;27;20230;-72
2022/09/11 07:45:18;;;;;;;2.75;2.42;;;;;;;17.73;76.90;101743.53;6336624;27;20237;-73
2022/09/11 07:48:41;;;;;;;1.70;1.60;;;;;;;18.10;75.91;101748.69;6335664;27;20520;-73
2022/09/11 07:52:04;;;;;;;2.35;2.08;;;;;;;17.91;76.43;101755.25;6336045;27;20229;-74
2022/09/11 07:55:35;;;;;;;2.00;1.77;;;;;;;17.83;76.39;101763.38;6334137;27;20609;-78
2022/09/11 07:59:00;;;;;;;2.95;2.22;;;;;;;17.86;76.89;101762.19;6330624;27;20515;-77
2022/09/11 08:02:22;;;;;;;1.70;1.60;;;;;;;18.05;74.98;101757.34;6306057;27;20795;-77
2022/09/11 08:05:43;;;;;;;2.15;1.95;;;;;;;18.18;74.70;101762.38;6301548;27;20722;-75
2022/09/11 08:09:08;;;;;;;2.65;2.22;;;;;;;18.64;74.78;101771.97;6327863;27;20600;-80
2022/09/11 08:12:33;;;;;;;1.92;1.80;;;;;;;18.89;73.41;101766.38;6326959;28;20229;-81
2022/09/11 08:15:56;;;;;;;1.77;1.42;;;;;;;18.89;72.45;101771.84;6319060;27;20253;-80
2022/09/11 08:19:20;;;;;;;1.23;1.17;;;;;;;18.50;73.25;101773.47;6329294;27;20631;-81
2022/09/11 08:22:45;;;;;;;1.98;1.77;;;;;;;19.05;74.07;101779.19;6319620;28;20332;-81
2022/09/11 08:26:08;;;;;;;1.85;1.73;;;;;;;19.34;71.36;101776.03;6317335;28;20236;-70
2022/09/11 08:29:31;;;;;;;8.88;1.80;;;;;;;19.70;70.74;101780.09;6321923;28;20233;-77
2022/09/11 08:32:55;;;;;;;77.97;69.47;;;;;;;19.68;71.33;101782.16;6312017;28;20233;-76
2022/09/11 08:36:18;;;;;;;10.07;8.85;;;;;;;19.88;70.03;101789.81;6335746;27;20245;-75
2022/09/11 08:39:40;;;;;;;3.15;2.83;;;;;;;19.88;69.99;101795.28;6330902;27;20376;-74
2022/09/11 08:43:04;;;;;;;3.05;1.50;;;;;;;19.49;70.45;101799.78;6310847;27;20241;-76
2022/09/11 08:46:33;;;;;;;1.83;1.60;;;;;;;19.10;71.25;101796.84;6318209;27;20491;-75
2022/09/11 08:50:01;;;;;;;2.67;1.58;;;;;;;18.88;72.79;101797.44;6327425;27;20238;-76
2022/09/11 08:53:24;;;;;;;1.90;1.77;;;;;;;18.73;71.39;101798.28;6318887;27;20935;-75
2022/09/11 08:56:47;;;;;;;1.48;1.38;;;;;;;19.45;69.93;101800.28;6310896;27;20225;-75
2022/09/11 09:00:18;;;;;;;2.42;2.15;;;;;;;19.99;68.04;101796.78;6321790;27;20539;-76
2022/09/11 09:04:09;;;;;;;2.08;1.55;;;;;;;19.87;67.84;101801.81;6318284;27;20526;-76
2022/09/11 09:07:42;;;;;;;1.63;1.52;;;;;;;20.15;67.59;101801.41;6305373;27;20234;-75
2022/09/11 09:11:19;;;;;;;1.42;1.33;;;;;;;20.75;64.93;101799.78;6328622;27;20232;-75
2022/09/11 09:15:08;;;;;;;1.63;1.50;;;;;;;20.60;64.98;101796.09;6325820;27;20584;-75
2022/09/11 09:18:33;;;;;;;2.08;1.88;;;;;;;20.33;65.67;101796.56;6314067;27;20257;-76
2022/09/11 09:22:07;;;;;;;1.17;1.08;;;;;;;20.35;65.91;101802.72;6342365;27;20270;-75
2022/09/11 09:25:36;;;;;;;1.10;1.05;;;;;;;20.21;64.61;101801.59;6328740;27;20224;-75
2022/09/11 09:29:02;;;;;;;1.15;0.80;;;;;;;20.76;63.75;101803.41;6327321;27;20234;-76
2022/09/11 09:32:29;;;;;;;1.10;0.90;;;;;;;21.29;61.14;101801.53;6312106;27;20217;-76
2022/09/11 09:35:53;;;;;;;3.63;1.48;;;;;;;20.67;62.30;101799.84;6297784;27;20234;-76
2022/09/11 09:39:18;;;;;;;0.98;0.88;;;;;;;20.16;63.91;101800.34;6324936;27;20237;-75
2022/09/11 09:43:11;;;;;;;1.20;0.80;;;;;;;20.21;65.38;101808.94;6340681;27;20229;-74
2022/09/11 09:46:41;;;;;;;1.05;1.00;;;;;;;20.19;64.42;101792.66;6345509;27;20346;-76
2022/09/11 09:50:02;;;;;;;0.70;0.70;;;;;;;20.29;64.75;101798.81;6343275;27;20237;-75
2022/09/11 09:53:32;;;;;;;0.93;0.90;;;;;;;21.20;63.11;101793.53;6347680;27;20233;-75
2022/09/11 09:56:56;;;;;;;0.65;0.65;;;;;;;21.46;60.80;101796.75;6342959;27;20236;-77
2022/09/11 10:00:20;;;;;;;0.80;0.80;;;;;;;21.63;60.21;101792.84;6345390;27;20602;-76
2022/09/11 10:03:41;;;;;;;0.90;0.82;;;;;;;21.68;60.97;101797.75;6335770;27;20226;-76
2022/09/11 10:07:10;;;;;;;1.10;0.70;;;;;;;21.32;61.54;101805.78;6319018;27;20233;-74
2022/09/11 10:10:35;;;;;;;0.70;0.70;;;;;;;20.66;62.91;101809.94;6358736;27;20221;-76
2022/09/11 10:13:56;;;;;;;0.73;0.73;;;;;;;21.36;61.63;101810.72;6354118;27;20229;-74
2022/09/11 10:17:30;;;;;;;1.10;1.00;;;;;;;22.24;58.74;101805.44;6310106;27;20245;-73
2022/09/11 10:20:51;;;;;;;4.32;1.25;;;;;;;22.76;56.07;101805.34;6330523;27;20232;-74
2022/09/11 10:24:22;;;;;;;1.15;0.70;;;;;;;22.54;56.82;101804.38;6324153;27;20255;-75
2022/09/11 10:27:46;;;;;;;2.20;2.03;;;;;;;22.13;58.17;101809.50;6344085;27;20225;-73
2022/09/11 10:31:07;;;;;;;1.98;1.40;;;;;;;21.62;58.67;101814.97;6343096;27;20248;-76
2022/09/11 10:34:36;;;;;;;1.40;0.80;;;;;;;21.54;58.23;101809.56;6338306;27;20230;-75
2022/09/11 10:38:03;;;;;;;1.25;0.65;;;;;;;22.51;57.56;101809.41;6330407;27;20324;-75
2022/09/11 10:41:26;;;;;;;2.58;1.05;;;;;;;22.93;54.53;101798.53;6335851;27;20620;-73
2022/09/11 10:44:50;;;;;;;2.95;0.90;;;;;;;22.42;55.46;101802.31;6341382;27;20229;-74
2022/09/11 10:48:18;;;;;;;2.10;1.10;;;;;;;23.38;54.72;101797.38;6333118;27;20252;-75
2022/09/11 10:51:42;;;;;;;3.72;1.13;;;;;;;23.68;53.45;101802.50;6327108;27;20321;-69
2022/09/11 10:55:07;;;;;;;1.67;1.58;;;;;;;24.37;51.20;101799.84;6337647;27;20229;-74
2022/09/11 10:58:33;;;;;;;4.35;1.45;;;;;;;25.04;48.79;101799.94;6334189;27;20232;-69
2022/09/11 11:01:55;;;;;;;0.55;0.55;;;;;;;28.07;42.49;101789.41;6314994;27;21488;-73
2022/09/11 11:05:24;;;;;;;1.00;1.00;;;;;;;30.76;37.02;101786.94;6314450;27;20232;-76
2022/09/11 11:09:03;;;;;;;0.80;0.80;;;;;;;31.13;33.81;101789.34;6340512;27;20790;-78
2022/09/11 11:12:41;;;;;;;1.00;0.82;;;;;;;34.06;30.63;101787.53;6315783;27;20288;-79
2022/09/11 11:16:12;;;;;;;0.50;0.43;;;;;;;35.48;27.35;101791.78;6308453;27;20236;-77
2022/09/11 11:20:12;;;;;;;1.10;1.10;;;;;;;36.12;26.67;101790.09;6306481;27;20237;-78
2022/09/11 11:23:45;;;;;;;0.43;0.43;;;;;;;35.99;26.73;101791.53;6309638;27;20233;-78
2022/09/11 11:27:35;;;;;;;3.80;1.05;;;;;;;35.61;25.13;101788.44;6326884;27;20319;-77
2022/09/11 11:31:10;;;;;;;0.40;0.40;;;;;;;30.80;31.56;101784.47;6314544;27;20614;-79
2022/09/11 11:34:42;;;;;;;0.73;0.60;;;;;;;29.55;35.37;101785.97;6324302;27;22627;-77
2022/09/11 11:38:15;;;;;;;1.05;0.43;;;;;;;32.42;31.06;101785.44;6327963;27;20228;-78
2022/09/11 11:41:43;;;;;;;0.60;0.60;;;;;;;30.27;34.69;101792.22;6331318;27;20235;-79
2022/09/11 11:45:10;;;;;;;1.20;0.52;;;;;;;27.31;39.15;101782.31;6343262;27;20233;-77
2022/09/11 11:48:37;;;;;;;1.08;0.63;;;;;;;25.03;43.30;101795.50;6344172;27;20237;-79
2022/09/11 11:52:09;;;;;;;0.40;0.40;;;;;;;24.43;46.05;101794.34;6337755;27;20356;-79
2022/09/11 11:55:43;;;;;;;0.50;0.50;;;;;;;24.16;47.41;101799.91;6316098;27;20318;-79
2022/09/11 11:59:14;;;;;;;0.40;0.40;;;;;;;23.44;48.93;101804.84;6320125;27;20288;-80
2022/09/11 12:02:45;;;;;;;0.55;0.50;;;;;;;22.99;49.46;101809.63;6323818;27;20233;-78
2022/09/11 12:06:07;;;;;;;0.40;0.40;;;;;;;22.77;51.08;101810.63;6322315;27;20625;-78
2022/09/11 12:09:30;;;;;;;2.00;1.80;;;;;;;22.60;51.32;101813.78;6311212;27;20229;-80
2022/09/11 12:12:55;;;;;;;3.45;1.63;;;;;;;23.04;51.23;101804.41;6320102;27;20237;-80
2022/09/11 12:16:20;;;;;;;4.03;3.35;;;;;;;23.09;50.50;101806.56;6332343;27;20772;-79
2022/09/11 12:20:16;;;;;;;2.00;1.73;;;;;;;23.44;50.50;101802.06;6335742;27;20693;-74
2022/09/11 12:24:21;;;;;;;0.98;0.80;;;;;;;23.53;49.92;101803.66;6311975;27;20229;-77
2022/09/11 12:28:10;;;;;;;0.50;0.50;;;;;;;26.66;42.09;101800.13;6332144;27;20226;-77
2022/09/11 12:32:13;;;;;;;0.60;0.60;;;;;;;25.11;44.68;101804.44;6333560;27;20229;-77
2022/09/11 12:35:45;;;;;;;1.30;0.80;;;;;;;24.03;47.77;101810.84;6323823;27;20330;-78
2022/09/11 12:39:18;;;;;;;0.40;0.40;;;;;;;23.44;50.06;101807.59;6338130;27;20232;-77
2022/09/11 12:42:58;;;;;;;0.68;0.68;;;;;;;22.96;51.46;101806.41;6326063;27;21781;-78
2022/09/11 12:47:11;;;;;;;0.60;0.60;;;;;;;23.40;50.92;101807.13;6306811;27;20224;-80
2022/09/11 12:50:34;;;;;;;0.40;0.40;;;;;;;30.30;35.59;101797.31;6322260;27;20245;-81
2022/09/11 12:54:01;;;;;;;0.40;0.40;;;;;;;30.67;33.99;101793.13;6321633;27;20226;-79
2022/09/11 12:57:34;;;;;;;0.60;0.57;;;;;;;30.47;32.37;101787.97;6336645;27;20573;-78
2022/09/11 13:01:04;;;;;;;1.02;0.70;;;;;;;29.47;35.35;101800.22;6342234;27;20220;-79
2022/09/11 13:04:29;;;;;;;0.70;0.50;;;;;;;27.15;40.63;101802.22;6344926;27;20628;-79
2022/09/11 13:07:55;;;;;;;0.57;0.50;;;;;;;26.77;39.92;101794.78;6340966;27;20254;-79
2022/09/11 13:11:52;;;;;;;0.20;0.20;;;;;;;25.48;42.64;101791.97;6344151;27;20259;-78
2022/09/11 13:15:41;;;;;;;3.22;2.30;;;;;;;28.40;37.70;101784.34;6250955;28;20298;-79
2022/09/11 13:19:12;;;;;;;2.25;2.05;;;;;;;25.95;41.77;101779.88;6288734;28;20257;-81
2022/09/11 13:22:34;;;;;;;1.38;1.27;;;;;;;24.64;45.72;101781.53;6346689;27;20245;-78
2022/09/11 13:26:01;;;;;;;0.52;0.50;;;;;;;24.09;47.78;101785.25;6328593;27;20238;-77
2022/09/11 13:29:25;;;;;;;1.48;0.35;;;;;;;23.55;48.64;101787.78;6341743;27;20225;-77
2022/09/11 13:32:48;;;;;;;0.88;0.88;;;;;;;23.33;48.58;101784.19;6357983;27;20228;-78
2022/09/11 13:36:14;;;;;;;0.52;0.52;;;;;;;23.54;47.54;101773.16;6345759;27;20256;-79
2022/09/11 13:39:39;;;;;;;1.88;0.70;;;;;;;28.12;38.92;101777.63;6332626;27;20233;-78
2022/09/11 13:43:02;;;;;;;0.57;0.40;;;;;;;31.04;32.86;101772.16;6351735;27;20224;-78
2022/09/11 13:46:26;;;;;;;0.40;0.40;;;;;;;31.60;30.55;101762.06;6356643;27;20723;-78
2022/09/11 13:49:48;;;;;;;0.55;0.50;;;;;;;32.70;29.49;101763.75;6358067;27;20729;-78
2022/09/11 13:53:09;;;;;;;0.50;0.50;;;;;;;32.06;30.26;101767.31;6348089;27;20222;-78
2022/09/11 13:56:44;;;;;;;0.40;0.40;;;;;;;31.53;31.34;101767.81;6355817;27;20226;-77
2022/09/11 14:00:05;;;;;;;0.45;0.38;;;;;;;28.00;36.70;101766.41;6336757;27;20240;-79
2022/09/11 14:03:35;;;;;;;0.95;0.60;;;;;;;24.96;44.07;101773.38;6344290;27;20228;-79
2022/09/11 14:06:56;;;;;;;0.35;0.35;;;;;;;24.26;45.06;101772.88;6340764;27;20505;-79
2022/09/11 14:10:23;;;;;;;0.65;0.32;;;;;;;23.90;46.58;101778.53;6354832;27;20220;-79
2022/09/11 14:13:48;;;;;;;0.22;0.22;;;;;;;23.38;47.61;101775.34;6353707;27;20232;-78
2022/09/11 14:17:16;;;;;;;1.17;1.05;;;;;;;23.09;48.36;101770.81;6345960;27;20222;-78
2022/09/11 14:20:44;;;;;;;0.50;0.50;;;;;;;22.75;50.49;101776.13;6340701;27;20508;-79
2022/09/11 14:24:25;;;;;;;1.13;0.40;;;;;;;22.20;52.17;101777.50;6332551;27;20622;-80
2022/09/11 14:27:47;;;;;;;0.50;0.50;;;;;;;22.11;51.93;101775.88;6333618;27;20254;-79
2022/09/11 14:31:09;;;;;;;1.20;0.55;;;;;;;22.68;51.59;101773.28;6327745;27;20225;-79
2022/09/11 14:34:32;;;;;;;0.30;0.30;;;;;;;23.28;48.81;101770.13;6340378;27;20241;-80
2022/09/11 14:37:56;;;;;;;0.70;0.70;;;;;;;22.80;50.67;101774.47;6321391;27;20591;-82
2022/09/11 14:41:23;;;;;;;0.80;0.63;;;;;;;22.83;50.49;101765.00;6340558;27;20239;-78
2022/09/11 14:44:45;;;;;;;0.50;0.50;;;;;;;22.83;51.23;101754.84;6354057;27;20221;-80
2022/09/11 14:48:13;;;;;;;0.57;0.40;;;;;;;24.11;47.10;101756.44;6355623;27;20229;-79
2022/09/11 14:51:34;;;;;;;0.50;0.50;;;;;;;24.26;45.82;101750.81;6348202;27;20237;-80
2022/09/11 14:54:58;;;;;;;1.00;0.80;;;;;;;25.10;44.85;101750.28;6346011;27;20233;-79
2022/09/11 14:58:19;;;;;;;0.50;0.50;;;;;;;24.82;45.36;101752.34;6333694;27;20221;-82
2022/09/11 15:01:41;;;;;;;0.40;0.40;;;;;;;24.05;46.87;101750.91;6331968;27;20238;-79
2022/09/11 15:05:02;;;;;;;0.63;0.63;;;;;;;23.45;48.48;101759.72;6408182;22;20242;-76
2022/09/11 15:08:28;;;;;;;1.30;0.60;;;;;;;23.40;48.21;101749.34;6256614;28;20768;-77
2022/09/11 15:11:59;;;;;;;0.30;0.30;;;;;;;23.94;47.78;101752.28;6580663;22;20235;-77
2022/09/11 15:15:20;;;;;;;0.38;0.38;;;;;;;23.38;48.48;101748.69;6297661;27;20230;-78
2022/09/11 15:18:42;;;;;;;0.93;0.60;;;;;;;23.24;47.98;101752.31;6306640;28;20321;-78
2022/09/11 15:22:04;;;;;;;0.75;0.45;;;;;;;23.12;48.53;101747.53;6302640;28;20226;-78
2022/09/11 15:25:25;;;;;;;1.95;0.50;;;;;;;23.05;49.37;101748.31;6299120;28;20254;-77
2022/09/11 15:28:49;;;;;;;1.10;0.68;;;;;;;22.83;49.73;101741.09;6293522;28;20354;-78
2022/09/11 15:32:11;;;;;;;0.40;0.35;;;;;;;22.76;50.00;101742.09;6269021;28;20239;-78
2022/09/11 15:35:33;;;;;;;0.40;0.40;;;;;;;22.48;50.78;101747.44;6281503;28;21147;-78
2022/09/11 15:38:54;;;;;;;1.45;1.35;;;;;;;23.45;49.02;101735.81;6283439;28;20368;-78
2022/09/11 15:42:15;;;;;;;0.93;0.93;;;;;;;23.81;47.32;101732.91;6281672;28;20550;-78
2022/09/11 15:45:42;;;;;;;0.50;0.50;;;;;;;24.19;46.75;101736.13;6284888;28;20231;-79
2022/09/11 15:49:03;;;;;;;0.60;0.60;;;;;;;24.35;46.65;101731.13;6259759;28;20230;-78
2022/09/11 15:52:28;;;;;;;0.70;0.70;;;;;;;24.24;46.66;101733.63;6272946;28;20253;-79
2022/09/11 15:55:49;;;;;;;0.55;0.55;;;;;;;23.44;48.58;101736.00;6277965;28;20505;-79